Time;durP1;ratioP1;P1;durP2;ratioP2;P2;SDS_P1;SDS_P2;PMS_P1;PMS_P2;Temp;Humidity;BMP_temperature;BMP_pressure;BME280_temperature;BME280_humidity;BME280_pressure;Samples;Min_cycle;Max_cycle;Signal;HPM_P1;HPM_P2
2022/11/05 00:09:31;;;;;;;10.33;7.57;;;9.50;99.90;;;;;;5012107;28;20398;-67
2022/11/05 00:17:32;;;;;;;10.90;7.63;;;9.50;99.90;;;;;;5012091;28;20440;-67
2022/11/05 00:19:58;;;;;;;9.20;7.07;;;9.50;99.90;;;;;;5011392;28;20412;-68
2022/11/05 00:25:15;;;;;;;8.70;6.80;;;9.50;99.90;;;;;;5011364;28;20272;-67
2022/11/05 00:27:43;;;;;;;8.20;6.07;;;9.50;99.90;;;;;;5009996;28;20448;-67
2022/11/05 00:30:09;;;;;;;12.73;5.93;;;9.50;99.90;;;;;;5011402;28;20416;-67
2022/11/05 00:32:35;;;;;;;7.77;5.43;;;9.40;99.90;;;;;;5011541;28;20452;-67
2022/11/05 00:35:00;;;;;;;8.50;5.80;;;9.40;99.90;;;;;;5011464;28;20586;-67
2022/11/05 00:37:27;;;;;;;7.20;5.37;;;9.50;99.90;;;;;;5011528;28;20189;-67
2022/11/05 00:39:52;;;;;;;11.10;6.10;;;9.40;99.90;;;;;;5011717;28;20270;-66
2022/11/05 00:45:04;;;;;;;5.33;4.83;;;9.40;99.90;;;;;;5012690;28;20577;-67
2022/11/05 00:50:17;;;;;;;8.10;5.80;;;9.40;99.90;;;;;;5015212;28;20399;-67
2022/11/05 00:53:00;;;;;;;11.50;5.57;;;9.40;99.90;;;;;;5015187;28;20418;-67
2022/11/05 00:55:40;;;;;;;9.73;4.87;;;9.40;99.90;;;;;;5014860;28;20463;-69
2022/11/05 00:58:09;;;;;;;13.53;5.33;;;9.40;99.90;;;;;;5015172;28;20426;-68
2022/11/05 01:00:36;;;;;;;9.10;5.50;;;9.40;99.90;;;;;;5014706;28;20889;-68
2022/11/05 01:03:08;;;;;;;5.03;4.53;;;9.40;99.90;;;;;;5015059;28;20454;-67
2022/11/05 01:05:44;;;;;;;9.83;5.70;;;9.40;99.90;;;;;;5014444;28;20517;-67
2022/11/05 01:08:11;;;;;;;7.97;4.60;;;9.40;99.90;;;;;;5015011;28;20477;-67
2022/11/05 01:10:45;;;;;;;8.83;5.67;;;9.40;99.90;;;;;;5014791;28;20399;-67
2022/11/05 01:13:11;;;;;;;7.90;4.93;;;9.40;99.90;;;;;;5014825;28;20463;-67
2022/11/05 01:15:37;;;;;;;8.80;4.80;;;9.40;99.90;;;;;;5014365;28;20423;-68
2022/11/05 01:18:04;;;;;;;6.60;4.77;;;9.40;99.90;;;;;;5014646;28;20408;-67
2022/11/05 01:20:31;;;;;;;8.10;4.93;;;9.40;99.90;;;;;;5014567;28;20409;-68
2022/11/05 01:22:57;;;;;;;10.37;5.70;;;9.40;99.90;;;;;;5014613;28;20465;-68
2022/11/05 01:25:23;;;;;;;6.33;4.67;;;9.40;99.90;;;;;;5014382;28;20419;-67
2022/11/05 01:27:48;;;;;;;9.60;5.03;;;9.40;99.90;;;;;;5014550;28;20411;-67
2022/11/05 01:30:14;;;;;;;8.60;4.70;;;9.40;99.90;;;;;;5014560;28;20401;-67
2022/11/05 01:32:40;;;;;;;9.00;5.30;;;9.40;99.90;;;;;;5015190;28;20257;-67
2022/11/05 01:35:09;;;;;;;7.70;5.37;;;9.40;99.90;;;;;;5015504;28;20196;-67
2022/11/05 01:37:34;;;;;;;8.77;5.23;;;9.40;99.90;;;;;;5014750;28;20198;-67
2022/11/05 01:40:00;;;;;;;15.20;5.90;;;9.40;99.90;;;;;;5014777;28;20410;-67
2022/11/05 01:42:27;;;;;;;5.03;4.53;;;9.30;99.90;;;;;;5014348;28;20714;-67
2022/11/05 01:44:55;;;;;;;9.50;5.60;;;9.40;99.90;;;;;;5014572;28;20200;-67
2022/11/05 01:47:49;;;;;;;8.97;5.40;;;9.30;99.90;;;;;;5014486;28;20492;-66
2022/11/05 01:50:20;;;;;;;7.23;5.07;;;9.30;99.90;;;;;;5014349;28;20430;-67
2022/11/05 01:52:47;;;;;;;7.13;6.13;;;9.30;99.90;;;;;;5014396;28;20742;-66
2022/11/05 01:55:19;;;;;;;12.27;6.63;;;9.30;99.90;;;;;;5013810;28;20433;-67
2022/11/05 01:57:45;;;;;;;6.10;4.77;;;9.30;99.90;;;;;;5014058;28;20771;-67
2022/11/05 02:00:11;;;;;;;12.83;5.67;;;9.20;99.90;;;;;;5013998;28;20494;-67
2022/11/05 02:02:36;;;;;;;8.17;6.10;;;9.20;99.90;;;;;;5014131;28;20207;-67
2022/11/05 02:05:05;;;;;;;6.50;5.27;;;9.20;99.90;;;;;;5013646;28;21007;-67
2022/11/05 02:07:32;;;;;;;7.50;5.40;;;9.20;99.90;;;;;;5013902;28;20173;-67
2022/11/05 02:10:09;;;;;;;16.00;6.70;;;9.20;99.90;;;;;;5013717;28;20772;-67
2022/11/05 02:12:38;;;;;;;9.07;5.97;;;9.20;99.90;;;;;;5013623;28;20419;-67
2022/11/05 02:15:04;;;;;;;8.33;5.70;;;9.20;99.90;;;;;;5012175;28;20445;-68
2022/11/05 02:18:17;;;;;;;9.40;5.30;;;9.20;99.90;;;;;;5013521;28;20419;-66
2022/11/05 02:21:28;;;;;;;13.87;5.80;;;9.10;99.90;;;;;;5011458;28;20468;-67
2022/11/05 02:24:27;;;;;;;9.00;6.20;;;9.10;99.90;;;;;;5013441;28;20425;-68
2022/11/05 02:27:40;;;;;;;10.63;7.67;;;9.10;99.90;;;;;;5013157;28;20401;-67
2022/11/05 02:30:25;;;;;;;8.30;6.10;;;9.00;99.90;;;;;;5011988;28;20404;-67
2022/11/05 02:32:57;;;;;;;8.50;6.30;;;9.00;99.90;;;;;;5013193;28;20420;-66
2022/11/05 02:36:03;;;;;;;8.10;6.80;;;9.00;99.90;;;;;;5013151;28;20425;-67
2022/11/05 02:38:39;;;;;;;9.60;6.80;;;9.00;99.90;;;;;;5013209;28;20544;-67
2022/11/05 02:41:32;;;;;;;14.53;7.57;;;8.90;99.90;;;;;;5013151;28;20951;-66
2022/11/05 02:44:13;;;;;;;9.83;6.57;;;8.80;99.90;;;;;;5013015;28;20866;-66
2022/11/05 02:47:06;;;;;;;11.27;7.70;;;8.80;99.90;;;;;;5012953;28;20528;-67
2022/11/05 02:49:41;;;;;;;14.30;8.13;;;8.80;99.90;;;;;;5013004;28;20415;-67
2022/11/05 02:52:24;;;;;;;13.47;8.80;;;8.70;99.90;;;;;;5013072;28;20533;-66
2022/11/05 02:54:55;;;;;;;13.20;8.77;;;8.70;99.90;;;;;;5012710;28;20852;-67
2022/11/05 02:57:21;;;;;;;12.93;7.80;;;8.60;99.90;;;;;;5013064;28;20446;-67
2022/11/05 02:59:47;;;;;;;12.37;7.93;;;8.60;99.90;;;;;;5012687;28;20445;-66
2022/11/05 03:02:12;;;;;;;10.60;7.13;;;8.60;99.90;;;;;;5012627;28;20797;-66
2022/11/05 03:04:38;;;;;;;9.40;7.70;;;8.50;99.90;;;;;;5035019;23;20271;-72
2022/11/05 03:07:12;;;;;;;9.57;7.13;;;8.50;99.90;;;;;;5011875;28;20169;-72
2022/11/05 03:10:17;;;;;;;9.93;7.47;;;8.50;99.90;;;;;;5012712;28;20177;-72
2022/11/05 03:13:21;;;;;;;11.60;7.70;;;8.50;99.90;;;;;;5012429;28;20399;-72
2022/11/05 03:15:52;;;;;;;10.23;7.13;;;8.40;99.90;;;;;;4978659;28;20636;-72
2022/11/05 03:18:27;;;;;;;9.20;7.00;;;8.40;99.90;;;;;;5012588;28;20472;-71
2022/11/05 03:21:07;;;;;;;18.50;8.67;;;8.40;99.90;;;;;;5012255;28;20443;-71
2022/11/05 03:23:58;;;;;;;10.67;6.93;;;8.30;99.90;;;;;;5012396;28;20478;-71
2022/11/05 03:26:36;;;;;;;10.83;7.33;;;8.30;99.90;;;;;;5012024;28;20801;-71
2022/11/05 03:29:05;;;;;;;14.47;7.27;;;8.30;99.90;;;;;;5012090;28;20401;-72
2022/11/05 03:31:34;;;;;;;10.33;6.37;;;8.30;99.90;;;;;;5012217;28;20466;-72
2022/11/05 03:34:02;;;;;;;11.00;7.23;;;8.30;99.90;;;;;;5012186;28;20425;-72
2022/11/05 03:36:33;;;;;;;9.07;6.73;;;8.30;99.90;;;;;;5011836;28;20436;-72
2022/11/05 03:39:04;;;;;;;15.60;8.13;;;8.30;99.90;;;;;;5011932;28;20423;-73
2022/11/05 03:41:32;;;;;;;9.47;6.77;;;8.30;99.90;;;;;;5011943;28;20539;-72
2022/11/05 03:44:03;;;;;;;15.30;6.50;;;8.30;99.90;;;;;;5013135;28;20432;-73
2022/11/05 03:46:39;;;;;;;10.77;7.40;;;8.30;99.90;;;;;;5013303;28;20408;-73
2022/11/05 03:49:08;;;;;;;9.33;6.00;;;8.30;99.90;;;;;;5013577;28;20414;-72
2022/11/05 03:51:56;;;;;;;10.30;7.00;;;8.30;99.90;;;;;;5012194;28;20598;-72
2022/11/05 03:54:21;;;;;;;13.43;8.10;;;8.20;99.90;;;;;;5011730;28;20427;-72
2022/11/05 03:57:07;;;;;;;12.87;7.50;;;8.20;99.90;;;;;;5011829;28;20421;-72
2022/11/05 03:59:39;;;;;;;12.97;6.50;;;8.20;99.90;;;;;;5012296;28;20180;-72
2022/11/05 04:02:05;;;;;;;9.20;6.53;;;8.20;99.90;;;;;;5012416;28;20687;-72
2022/11/05 04:04:30;;;;;;;9.97;6.67;;;8.20;99.90;;;;;;5012165;28;20444;-72
2022/11/05 04:15:08;;;;;;;12.77;6.70;;;8.10;99.90;;;;;;5011270;28;20439;-71
2022/11/05 04:17:33;;;;;;;11.57;6.27;;;8.10;99.90;;;;;;5011505;28;20408;-72
2022/11/05 04:25:27;;;;;;;9.63;6.20;;;8.00;99.90;;;;;;5015488;28;20483;-71
2022/11/05 04:27:58;;;;;;;11.40;7.03;;;8.00;99.90;;;;;;5015429;28;20415;-71
2022/11/05 04:30:23;;;;;;;10.60;5.57;;;8.00;99.90;;;;;;5015396;28;20178;-72
2022/11/05 04:33:03;;;;;;;16.60;6.23;;;8.00;99.90;;;;;;5015214;28;20407;-72
2022/11/05 04:35:35;;;;;;;18.83;7.43;;;8.00;99.90;;;;;;5015079;28;20192;-71
2022/11/05 04:38:02;;;;;;;10.90;6.23;;;7.90;99.90;;;;;;5015225;28;20396;-71
2022/11/05 04:40:28;;;;;;;9.90;6.00;;;7.90;99.90;;;;;;5015262;28;20909;-71
2022/11/05 04:42:54;;;;;;;11.63;7.03;;;7.90;99.90;;;;;;5014943;28;20515;-71
2022/11/05 04:45:24;;;;;;;7.90;5.90;;;7.90;99.90;;;;;;5014884;28;20196;-71
2022/11/05 04:47:50;;;;;;;8.37;5.03;;;7.90;99.90;;;;;;5014987;28;20406;-71
2022/11/05 04:50:16;;;;;;;8.33;5.53;;;7.90;99.90;;;;;;5015032;28;20399;-71
2022/11/05 04:52:42;;;;;;;11.70;5.60;;;7.90;99.90;;;;;;5015013;28;20477;-71
2022/11/05 04:55:08;;;;;;;9.57;6.20;;;7.90;99.90;;;;;;5014915;28;20276;-73
2022/11/05 04:57:33;;;;;;;14.10;6.10;;;7.90;99.90;;;;;;5015170;28;20184;-71
2022/11/05 04:59:59;;;;;;;15.50;5.80;;;7.90;99.90;;;;;;5014869;28;20407;-71
2022/11/05 05:02:25;;;;;;;8.57;6.23;;;7.90;99.90;;;;;;5015048;28;20198;-71
2022/11/05 05:04:50;;;;;;;18.73;6.10;;;7.90;99.90;;;;;;5014425;28;20597;-73
2022/11/05 05:07:16;;;;;;;8.83;5.20;;;7.80;99.90;;;;;;5014805;28;20173;-72
2022/11/05 05:09:42;;;;;;;8.00;4.97;;;7.80;99.90;;;;;;5014576;28;20200;-72
2022/11/05 05:12:07;;;;;;;11.10;5.63;;;7.80;99.90;;;;;;5014715;28;20227;-71
2022/11/05 05:14:33;;;;;;;15.23;6.33;;;7.80;99.90;;;;;;5014378;28;20198;-71
2022/11/05 05:16:59;;;;;;;11.17;5.97;;;7.80;99.90;;;;;;5014541;28;20367;-71
2022/11/05 05:19:24;;;;;;;8.43;4.93;;;7.80;99.90;;;;;;5014499;28;20425;-71
2022/11/05 05:21:50;;;;;;;7.57;5.90;;;7.80;99.90;;;;;;5015106;28;20200;-72
2022/11/05 05:24:18;;;;;;;7.00;5.67;;;7.80;99.90;;;;;;5024523;28;20180;-71
2022/11/05 05:26:46;;;;;;;11.93;4.70;;;7.80;99.90;;;;;;5025762;28;20169;-71
2022/11/05 05:29:12;;;;;;;14.93;5.60;;;7.70;99.90;;;;;;5020361;28;20399;-72
2022/11/05 05:31:39;;;;;;;8.23;5.17;;;7.70;99.90;;;;;;5013907;28;20416;-71
2022/11/05 05:34:05;;;;;;;7.00;5.87;;;7.70;99.90;;;;;;5014192;28;20415;-72
2022/11/05 05:36:31;;;;;;;7.33;5.70;;;7.70;99.90;;;;;;5014172;28;20408;-72
2022/11/05 05:38:57;;;;;;;12.60;6.10;;;7.70;99.90;;;;;;5013936;28;20447;-71
2022/11/05 05:41:23;;;;;;;9.13;4.70;;;7.60;99.90;;;;;;5013939;28;20878;-72
2022/11/05 05:43:49;;;;;;;9.13;5.63;;;7.60;99.90;;;;;;5013855;28;20583;-72
2022/11/05 05:46:16;;;;;;;7.90;5.10;;;7.60;99.90;;;;;;5013699;28;20511;-72
2022/11/05 05:48:42;;;;;;;9.67;6.33;;;7.50;99.90;;;;;;5014021;28;20200;-71
2022/11/05 05:51:10;;;;;;;10.97;5.57;;;7.50;99.90;;;;;;5013841;28;20833;-71
2022/11/05 05:53:36;;;;;;;13.60;6.07;;;7.50;99.90;;;;;;5013913;28;20176;-71
2022/11/05 05:56:03;;;;;;;13.37;5.90;;;7.50;99.90;;;;;;5013468;28;20432;-71
2022/11/05 05:58:33;;;;;;;16.27;5.63;;;7.50;99.90;;;;;;5013902;28;20461;-72
2022/11/05 06:01:04;;;;;;;6.30;5.57;;;7.50;99.90;;;;;;5013633;28;20415;-72
2022/11/05 06:03:30;;;;;;;9.13;5.80;;;7.50;99.90;;;;;;5013695;28;20993;-72
2022/11/05 06:06:06;;;;;;;15.23;6.80;;;7.50;99.90;;;;;;5013613;28;20499;-68
2022/11/05 06:08:33;;;;;;;9.23;5.73;;;7.40;99.90;;;;;;5014044;28;20176;-72
2022/11/05 06:10:59;;;;;;;7.90;6.00;;;7.40;99.90;;;;;;5013480;28;20491;-72
2022/11/05 06:13:25;;;;;;;9.93;6.10;;;7.40;99.90;;;;;;5013237;28;20457;-71
2022/11/05 06:15:51;;;;;;;9.43;6.90;;;7.40;99.90;;;;;;5013258;28;20463;-72
2022/11/05 06:18:16;;;;;;;8.07;5.80;;;7.40;99.90;;;;;;5013654;28;20482;-71
2022/11/05 06:20:42;;;;;;;10.23;5.73;;;7.40;99.90;;;;;;5013540;28;20176;-71
2022/11/05 06:23:07;;;;;;;11.90;6.20;;;7.40;99.90;;;;;;5013589;28;20666;-72
2022/11/05 06:25:33;;;;;;;13.03;5.87;;;7.40;99.90;;;;;;5013494;28;20193;-71
2022/11/05 06:27:59;;;;;;;11.67;6.20;;;7.30;99.90;;;;;;5013293;28;20179;-71
2022/11/05 06:30:24;;;;;;;8.83;6.10;;;7.40;99.90;;;;;;5013132;28;20180;-72
2022/11/05 06:32:50;;;;;;;11.20;5.57;;;7.40;99.90;;;;;;5013278;28;20181;-71
2022/11/05 06:35:15;;;;;;;15.53;5.87;;;7.40;99.90;;;;;;5011839;28;20211;-73
2022/11/05 06:37:41;;;;;;;8.93;4.93;;;7.40;99.90;;;;;;5012967;28;20525;-72
2022/11/05 06:40:08;;;;;;;9.50;5.53;;;7.40;99.90;;;;;;5013164;28;20272;-73
2022/11/05 06:42:33;;;;;;;9.40;5.23;;;7.40;99.90;;;;;;5012434;28;20655;-71
2022/11/05 06:44:59;;;;;;;9.20;4.83;;;7.50;99.90;;;;;;5012760;28;20470;-71
2022/11/05 06:47:25;;;;;;;18.93;7.37;;;7.50;99.90;;;;;;5013293;28;20174;-71
2022/11/05 06:49:50;;;;;;;12.53;4.80;;;7.50;99.90;;;;;;5012989;28;20185;-72
2022/11/05 06:52:16;;;;;;;9.57;5.40;;;7.50;99.90;;;;;;5013220;28;20573;-73
2022/11/05 06:54:43;;;;;;;10.60;5.40;;;7.50;99.90;;;;;;5012914;28;20199;-71
2022/11/05 06:57:10;;;;;;;7.63;4.87;;;7.50;99.90;;;;;;5012653;28;20457;-71
2022/11/05 06:59:39;;;;;;;10.60;3.77;;;7.60;99.90;;;;;;5012894;28;20419;-71
2022/11/05 07:02:06;;;;;;;9.83;4.50;;;7.60;99.90;;;;;;5013036;28;20453;-72
2022/11/05 07:04:32;;;;;;;11.33;4.17;;;7.60;99.90;;;;;;5012808;28;20475;-72
2022/11/05 07:06:59;;;;;;;6.67;4.60;;;7.60;99.90;;;;;;5013133;28;20765;-72
2022/11/05 07:09:25;;;;;;;14.83;6.07;;;7.60;99.90;;;;;;5013138;28;20478;-70
2022/11/05 07:11:51;;;;;;;8.47;4.73;;;7.60;99.90;;;;;;5012596;28;20509;-71
2022/11/05 07:14:16;;;;;;;8.97;5.47;;;7.70;99.90;;;;;;5016572;28;20809;-71
2022/11/05 07:16:42;;;;;;;9.73;4.70;;;7.60;99.90;;;;;;5014167;28;20463;-71
2022/11/05 07:19:07;;;;;;;6.43;4.30;;;7.60;99.90;;;;;;5013620;28;20235;-71
2022/11/05 07:21:33;;;;;;;10.07;5.13;;;7.60;99.90;;;;;;5013518;28;20176;-72
2022/11/05 07:23:58;;;;;;;10.90;5.07;;;7.60;99.90;;;;;;5013317;28;20166;-71
2022/11/05 07:26:24;;;;;;;9.40;5.73;;;7.50;99.90;;;;;;5011854;28;20207;-71
2022/11/05 07:28:49;;;;;;;9.47;5.30;;;7.60;99.90;;;;;;5011901;28;20536;-73
2022/11/05 07:31:15;;;;;;;14.47;6.53;;;7.60;99.90;;;;;;5010888;28;20176;-66
2022/11/05 07:33:41;;;;;;;10.03;5.93;;;7.70;99.90;;;;;;5012139;28;20177;-70
2022/11/05 07:36:06;;;;;;;7.50;4.70;;;7.70;99.90;;;;;;5010946;28;20209;-74
2022/11/05 07:38:32;;;;;;;9.40;5.83;;;7.80;99.90;;;;;;5011764;28;20534;-70
2022/11/05 07:40:59;;;;;;;8.80;5.60;;;7.80;99.90;;;;;;5011752;28;20466;-72
2022/11/05 07:43:24;;;;;;;9.97;4.90;;;7.80;99.90;;;;;;5012348;28;20200;-71
2022/11/05 07:45:50;;;;;;;11.93;5.70;;;8.00;99.90;;;;;;5012845;28;20945;-71
2022/11/05 07:48:15;;;;;;;9.43;5.47;;;8.10;99.90;;;;;;5013703;28;20251;-72
2022/11/05 07:50:41;;;;;;;9.83;5.30;;;8.20;99.90;;;;;;5012657;28;20177;-71
2022/11/05 07:53:12;;;;;;;8.57;5.47;;;8.40;99.90;;;;;;5011474;28;20215;-71
2022/11/05 07:55:42;;;;;;;9.73;5.27;;;8.50;99.90;;;;;;5011819;28;20196;-71
2022/11/05 07:58:09;;;;;;;6.33;5.07;;;9.10;99.90;;;;;;5011626;28;20901;-71
2022/11/05 08:00:35;;;;;;;13.97;5.40;;;9.10;99.90;;;;;;5011494;28;20426;-71
2022/11/05 08:03:00;;;;;;;8.40;4.60;;;8.90;99.90;;;;;;5011345;28;20916;-71
2022/11/05 08:05:26;;;;;;;11.80;4.97;;;8.80;99.90;;;;;;5011198;28;20236;-70
2022/11/05 08:07:53;;;;;;;5.80;3.67;;;8.70;99.90;;;;;;5011469;28;20168;-70
2022/11/05 08:10:19;;;;;;;7.57;4.40;;;8.60;99.90;;;;;;5011301;28;20773;-70
2022/11/05 08:12:45;;;;;;;4.90;3.93;;;8.40;99.90;;;;;;5011259;28;20478;-70
2022/11/05 08:15:10;;;;;;;8.40;4.67;;;8.50;99.90;;;;;;5010960;28;20437;-71
2022/11/05 08:17:36;;;;;;;7.93;4.33;;;8.80;99.90;;;;;;5011414;28;20177;-71
2022/11/05 08:20:02;;;;;;;12.20;4.70;;;8.80;99.90;;;;;;5011385;28;20205;-71
2022/11/05 08:22:27;;;;;;;5.23;3.47;;;8.70;99.90;;;;;;5009885;28;20184;-71
2022/11/05 08:24:53;;;;;;;5.77;4.13;;;8.60;99.90;;;;;;5010985;28;20269;-72
2022/11/05 08:27:18;;;;;;;11.70;5.90;;;8.70;99.90;;;;;;5011375;28;20251;-71
2022/11/05 08:29:44;;;;;;;5.47;4.27;;;9.10;99.90;;;;;;5011900;28;20176;-70
2022/11/05 08:32:09;;;;;;;7.27;4.37;;;9.50;99.90;;;;;;5011934;28;20168;-68
2022/11/05 08:34:35;;;;;;;16.13;4.73;;;10.40;99.90;;;;;;5011645;28;20699;-71
2022/11/05 08:37:01;;;;;;;12.80;5.83;;;10.70;99.90;;;;;;5012450;28;20168;-66
2022/11/05 08:39:27;;;;;;;8.27;4.00;;;11.20;99.90;;;;;;5012364;28;20169;-69
2022/11/05 08:41:52;;;;;;;4.33;3.07;;;12.00;99.90;;;;;;5008889;28;20869;-71
2022/11/05 08:44:18;;;;;;;8.27;4.10;;;12.70;99.90;;;;;;5014424;28;20247;-69
2022/11/05 08:46:43;;;;;;;3.00;2.37;;;12.90;99.90;;;;;;5012615;28;20222;-69
2022/11/05 08:49:09;;;;;;;4.17;2.80;;;11.80;99.90;;;;;;5013326;28;20176;-69
2022/11/05 08:51:35;;;;;;;6.10;2.37;;;11.90;99.90;;;;;;5012958;28;20540;-69
2022/11/05 08:54:00;;;;;;;3.87;3.10;;;11.30;99.90;;;;;;5012397;28;20199;-68
2022/11/05 08:56:26;;;;;;;4.70;2.83;;;10.60;99.90;;;;;;5012254;28;20670;-68
2022/11/05 08:58:52;;;;;;;3.80;2.70;;;10.30;99.90;;;;;;5012606;28;20177;-71
2022/11/05 09:01:17;;;;;;;9.50;3.00;;;10.10;99.90;;;;;;5013067;28;20299;-69
2022/11/05 09:03:43;;;;;;;6.30;2.90;;;10.10;99.90;;;;;;5013269;28;20217;-69
2022/11/05 09:06:08;;;;;;;5.80;2.43;;;10.40;99.90;;;;;;5015347;28;20689;-69
2022/11/05 09:08:34;;;;;;;3.87;3.07;;;10.10;99.90;;;;;;5016938;28;20219;-71
2022/11/05 09:11:00;;;;;;;10.10;4.83;;;10.00;99.90;;;;;;5017085;28;20164;-69
2022/11/05 09:13:26;;;;;;;7.77;3.83;;;9.90;99.90;;;;;;5017262;28;20180;-70
2022/11/05 09:15:52;;;;;;;7.63;2.73;;;10.00;99.90;;;;;;5016238;28;20291;-70
2022/11/05 09:18:18;;;;;;;10.17;2.53;;;10.50;99.90;;;;;;5016763;28;20442;-70
2022/11/05 09:20:45;;;;;;;11.37;3.73;;;11.10;99.90;;;;;;5016265;28;20416;-72
2022/11/05 09:23:13;;;;;;;7.40;3.97;;;11.60;99.90;;;;;;5016067;28;20483;-71
2022/11/05 09:25:39;;;;;;;8.27;2.70;;;11.80;99.90;;;;;;5016344;28;20458;-70
2022/11/05 09:28:09;;;;;;;4.80;3.00;;;11.60;99.90;;;;;;5014840;28;20455;-70
2022/11/05 09:30:40;;;;;;;5.60;3.53;;;11.50;99.90;;;;;;5014784;28;20180;-70
2022/11/05 09:33:05;;;;;;;6.30;3.00;;;11.20;99.90;;;;;;5015186;28;20494;-69
2022/11/05 09:35:31;;;;;;;5.93;3.70;;;11.30;99.90;;;;;;5014597;28;20518;-74
2022/11/05 09:37:56;;;;;;;7.20;2.87;;;10.60;99.90;;;;;;5014972;28;20239;-70
2022/11/05 09:40:24;;;;;;;4.03;2.20;;;10.50;99.90;;;;;;5014293;28;20259;-70
2022/11/05 09:42:53;;;;;;;5.87;3.83;;;10.20;99.90;;;;;;5014177;28;20199;-70
2022/11/05 09:45:23;;;;;;;13.93;2.93;;;10.20;99.90;;;;;;5014166;28;20420;-70
2022/11/05 09:47:55;;;;;;;3.03;2.63;;;10.30;99.90;;;;;;5014361;28;20803;-72
2022/11/05 09:50:41;;;;;;;7.00;3.70;;;10.30;99.90;;;;;;5013918;28;20779;-70
2022/11/05 09:53:12;;;;;;;11.13;4.97;;;10.40;99.90;;;;;;5014097;28;20411;-69
2022/11/05 09:55:41;;;;;;;10.30;4.17;;;10.30;99.90;;;;;;5013477;28;20518;-69
2022/11/05 09:58:14;;;;;;;7.27;3.83;;;10.20;99.90;;;;;;5013913;28;20493;-72
2022/11/05 10:00:40;;;;;;;6.43;3.10;;;10.10;99.90;;;;;;5013533;28;20833;-70
2022/11/05 10:03:12;;;;;;;4.50;2.70;;;10.00;99.90;;;;;;5013676;28;20459;-70
2022/11/05 10:05:39;;;;;;;6.37;2.50;;;10.00;99.90;;;;;;5012297;28;20553;-71
2022/11/05 10:08:21;;;;;;;8.10;2.50;;;10.10;99.90;;;;;;5013884;28;20407;-70
2022/11/05 10:11:00;;;;;;;3.77;2.60;;;10.10;99.90;;;;;;5014022;28;20419;-70
2022/11/05 10:13:33;;;;;;;2.80;2.57;;;10.10;99.90;;;;;;5013775;28;20407;-70
2022/11/05 10:16:19;;;;;;;5.30;2.33;;;10.30;99.90;;;;;;5013442;28;20463;-70
2022/11/05 10:18:49;;;;;;;7.30;2.70;;;10.50;99.90;;;;;;5013133;28;20509;-69
2022/11/05 10:21:17;;;;;;;5.77;3.63;;;10.40;99.90;;;;;;5014308;28;20434;-70
2022/11/05 10:23:46;;;;;;;2.73;2.30;;;10.30;99.90;;;;;;5014511;28;20473;-71
2022/11/05 10:26:22;;;;;;;3.00;2.10;;;10.30;99.90;;;;;;5014160;28;20421;-71
2022/11/05 10:28:49;;;;;;;3.67;2.20;;;10.40;99.90;;;;;;5014758;28;20769;-70
2022/11/05 10:31:19;;;;;;;13.53;2.93;;;10.50;99.90;;;;;;5014437;28;20411;-70
2022/11/05 10:33:52;;;;;;;6.77;2.67;;;10.50;99.90;;;;;;5013448;28;20802;-69
2022/11/05 10:36:24;;;;;;;5.90;2.20;;;10.50;99.90;;;;;;5013402;28;20427;-70
2022/11/05 10:38:50;;;;;;;6.67;2.30;;;10.50;99.90;;;;;;5014971;28;20395;-70
2022/11/05 10:41:33;;;;;;;1.83;1.70;;;10.60;99.90;;;;;;5013203;28;20980;-70
2022/11/05 10:44:23;;;;;;;6.70;1.90;;;10.80;99.90;;;;;;5012782;28;20175;-71
2022/11/05 10:46:58;;;;;;;13.10;2.90;;;10.90;99.90;;;;;;5012538;28;20474;-69
2022/11/05 10:49:29;;;;;;;2.73;1.90;;;10.90;99.90;;;;;;5012828;28;20753;-70
2022/11/05 10:51:56;;;;;;;5.40;2.20;;;10.90;99.90;;;;;;5012648;28;20407;-70
2022/11/05 10:54:25;;;;;;;3.80;2.87;;;10.90;99.90;;;;;;5012454;28;20411;-71
2022/11/05 10:56:50;;;;;;;6.60;1.57;;;11.00;99.90;;;;;;5012310;28;20904;-72
2022/11/05 10:59:22;;;;;;;7.20;2.50;;;11.20;99.90;;;;;;5012949;28;20406;-70
2022/11/05 11:02:02;;;;;;;7.20;2.27;;;11.20;99.90;;;;;;5012905;28;20709;-70
2022/11/05 11:04:29;;;;;;;3.17;1.50;;;11.30;99.90;;;;;;5011238;28;20482;-75
2022/11/05 11:06:58;;;;;;;10.47;2.23;;;11.30;99.90;;;;;;5012293;28;20440;-71
2022/11/05 11:09:27;;;;;;;5.13;2.63;;;11.40;99.90;;;;;;5012096;28;20415;-72
2022/11/05 11:12:23;;;;;;;3.10;1.60;;;11.40;99.90;;;;;;5012644;28;20407;-72
2022/11/05 11:15:19;;;;;;;6.33;1.50;;;11.50;99.90;;;;;;5008666;28;20794;-72
2022/11/05 11:17:44;;;;;;;3.07;1.50;;;11.40;99.90;;;;;;5012256;28;20462;-72
2022/11/05 11:20:21;;;;;;;3.13;1.97;;;11.50;99.90;;;;;;5012259;28;20419;-71
2022/11/05 11:23:03;;;;;;;3.23;1.50;;;11.60;99.90;;;;;;5011502;28;20261;-72
2022/11/05 11:25:50;;;;;;;4.93;1.77;;;11.70;99.90;;;;;;5011631;28;20443;-72
2022/11/05 11:28:25;;;;;;;2.33;1.60;;;11.70;99.90;;;;;;5009556;28;20423;-71
2022/11/05 11:31:11;;;;;;;2.80;1.60;;;11.70;99.90;;;;;;5012463;28;20438;-72
2022/11/05 11:33:38;;;;;;;2.60;1.40;;;11.70;99.90;;;;;;5012228;28;20407;-71
2022/11/05 11:36:05;;;;;;;4.63;1.83;;;11.70;99.90;;;;;;5011548;28;20434;-72
2022/11/05 11:38:33;;;;;;;5.20;1.80;;;11.80;99.90;;;;;;5011022;28;21135;-72
2022/11/05 11:41:20;;;;;;;4.73;1.67;;;11.80;99.90;;;;;;5011584;28;20407;-72
2022/11/05 11:43:45;;;;;;;4.70;1.80;;;11.70;99.90;;;;;;5007124;28;20546;-72
2022/11/05 11:46:17;;;;;;;3.80;1.43;;;11.70;99.90;;;;;;5011454;28;20435;-72
2022/11/05 11:48:46;;;;;;;10.13;1.90;;;11.80;99.90;;;;;;5011621;28;20608;-71
2022/11/05 11:51:29;;;;;;;5.53;1.60;;;11.80;99.90;;;;;;5011347;28;20901;-74
2022/11/05 11:53:59;;;;;;;7.13;1.30;;;11.90;99.90;;;;;;5011587;28;20403;-72
2022/11/05 11:56:25;;;;;;;1.80;1.47;;;12.00;99.90;;;;;;5009534;28;20485;-72
2022/11/05 11:58:56;;;;;;;2.60;1.40;;;11.90;99.90;;;;;;5011143;28;20411;-72
2022/11/05 12:01:30;;;;;;;4.93;1.63;;;12.00;99.90;;;;;;5011021;28;20404;-72
2022/11/05 12:04:14;;;;;;;4.17;1.40;;;12.00;99.90;;;;;;5011306;28;20407;-70
2022/11/05 12:07:05;;;;;;;6.83;1.73;;;12.20;99.90;;;;;;5011912;28;20437;-71
2022/11/05 12:09:41;;;;;;;1.93;1.30;;;12.20;99.90;;;;;;5011250;28;20403;-72
2022/11/05 12:12:15;;;;;;;3.47;1.60;;;12.00;99.90;;;;;;5011098;28;20892;-72
2022/11/05 12:14:59;;;;;;;3.93;1.53;;;12.00;99.90;;;;;;5011200;28;20972;-71
2022/11/05 12:17:25;;;;;;;1.70;1.40;;;12.00;99.90;;;;;;5011602;28;20395;-72
2022/11/05 12:20:18;;;;;;;1.77;1.20;;;12.30;99.90;;;;;;5010868;28;20396;-72
2022/11/05 12:22:57;;;;;;;7.83;1.90;;;12.20;99.90;;;;;;5010945;28;20549;-72
2022/11/05 12:25:39;;;;;;;2.83;1.10;;;12.20;99.90;;;;;;5010477;28;20426;-72
2022/11/05 12:28:32;;;;;;;3.37;1.43;;;12.30;99.90;;;;;;5010874;28;20506;-70
2022/11/05 12:31:10;;;;;;;3.47;1.67;;;12.30;99.90;;;;;;5010893;28;20556;-71
2022/11/05 12:33:39;;;;;;;2.60;1.57;;;12.30;99.90;;;;;;5010495;28;20695;-71
2022/11/05 12:36:08;;;;;;;3.00;1.40;;;12.50;99.90;;;;;;5010374;28;20438;-71
2022/11/05 12:38:40;;;;;;;3.00;1.63;;;12.60;99.90;;;;;;5011019;28;20465;-71
2022/11/05 12:41:25;;;;;;;3.70;1.60;;;12.70;99.90;;;;;;5012357;28;20458;-71
2022/11/05 12:44:06;;;;;;;2.67;1.17;;;12.90;99.90;;;;;;5014614;28;20834;-71
2022/11/05 12:46:44;;;;;;;4.93;1.43;;;13.10;99.90;;;;;;5014293;28;20762;-71
2022/11/05 12:49:30;;;;;;;5.10;1.40;;;13.30;99.90;;;;;;5014249;28;20731;-72
2022/11/05 12:52:20;;;;;;;3.13;1.17;;;13.20;99.90;;;;;;5014532;28;20406;-71
2022/11/05 12:55:03;;;;;;;4.70;1.70;;;13.40;99.90;;;;;;5014093;28;20429;-73
2022/11/05 12:57:31;;;;;;;2.80;1.33;;;13.20;99.90;;;;;;5014633;28;20886;-71
2022/11/05 13:00:18;;;;;;;4.60;1.27;;;13.00;99.90;;;;;;5012885;28;20415;-71
2022/11/05 13:03:01;;;;;;;5.43;1.40;;;12.90;99.90;;;;;;5014116;28;20450;-70
2022/11/05 13:05:45;;;;;;;3.97;1.10;;;13.00;99.90;;;;;;5013828;28;20439;-73
2022/11/05 13:08:38;;;;;;;2.90;2.30;;;12.80;99.90;;;;;;5014332;28;20398;-72
2022/11/05 13:11:12;;;;;;;12.93;2.30;;;12.50;99.90;;;;;;5014186;28;20411;-73
2022/11/05 13:14:18;;;;;;;4.43;1.73;;;12.30;99.90;;;;;;5012795;28;20423;-72
2022/11/05 13:17:05;;;;;;;4.73;1.57;;;12.30;99.90;;;;;;5014179;28;20563;-72
2022/11/05 13:19:43;;;;;;;4.83;1.57;;;12.00;99.90;;;;;;5015174;28;20419;-72
2022/11/05 13:22:32;;;;;;;9.00;1.97;;;12.00;99.90;;;;;;5014885;28;20450;-73
2022/11/05 13:25:24;;;;;;;2.03;1.50;;;12.00;99.90;;;;;;5014263;28;20427;-72
2022/11/05 13:28:17;;;;;;;3.47;1.30;;;12.00;99.90;;;;;;5013964;28;20442;-72
2022/11/05 13:30:47;;;;;;;4.13;1.50;;;11.80;99.90;;;;;;5013351;28;20415;-74
2022/11/05 13:33:18;;;;;;;7.80;1.80;;;11.60;99.90;;;;;;5014081;28;20415;-72
2022/11/05 13:39:00;;;;;;;4.03;1.60;;;11.80;99.90;;;;;;5014295;28;20398;-71
2022/11/05 13:41:42;;;;;;;1.90;1.20;;;11.70;99.90;;;;;;5017980;28;20465;-72
2022/11/05 13:44:14;;;;;;;4.53;1.60;;;11.50;99.90;;;;;;5014764;28;20550;-71
2022/11/05 13:47:05;;;;;;;3.50;1.50;;;11.50;99.90;;;;;;5013979;28;20438;-73
2022/11/05 13:50:12;;;;;;;9.83;1.93;;;11.50;99.90;;;;;;5014546;28;20892;-72
2022/11/05 13:52:53;;;;;;;3.20;1.83;;;11.40;99.90;;;;;;5014251;28;20399;-72